CheckWX is a tool to help pilots better visualize weather data.  It is not intended as a substitute for an official pre-flight weather briefing.

13:31:25 UTC

EGTC TAF
Cranfield Airport
Cranfield, United Kingdom
TAF EGTC 071057Z 0712/0718 23009KT 9999 SCT035

Dec-7@
12:00 UTC

Dec-7 @ 12:00 UTC

Dec-7@
18:00 UTC

Dec-7 @ 18:00 UTC

TAF EGTC 071057Z 0712/0718 23009KT 9999 SCT035
Wind
  • 230° at 9 KTS
Cloud Levels
  • Scattered at 3,500' AGL